Norway Center, South Dakota
Current Conditions -  °F | °C
As of 10:55 AM on Saturday 22 Nov 2014 (Local Time) from KORC Reporting Station
Haze Haze  
Wind Chill: -2°   Ceiling: 100
Heat Index:   Visibility: 1.5mi
Dew Point:   Wind: 14mph
Humidity: 93%   Direction: 200°SSW
Pressure: 29.73"   Gusts: NA
Location:  43.1282°N, 96.5674°W
Report Text: KORC 221655Z AUTO 20012KT 1 1/2SM BR OVC001 03/02 A2973 RMK AO2
Loading
Personal Weather Stations






























Interactive Weather Map New forecast layout! Learn more

10-Day Weather Forecast

Advertisements
Track Severe Weather on mobile